sensor_id;sensor_type;location;lat;lon;timestamp;P1;durP1;ratioP1;P2;durP2;ratioP2
3331;SDS011;1678;50.94845400;5.30809100;2022-10-16T00:01:06;0.60;;;0.60;;
3331;SDS011;1678;50.94845400;5.30809100;2022-10-16T00:03:37;1.90;;;0.70;;
3331;SDS011;1678;50.94845400;5.30809100;2022-10-16T00:06:05;2.00;;;1.17;;
3331;SDS011;1678;50.94845400;5.30809100;2022-10-16T00:08:34;0.70;;;0.70;;
3331;SDS011;1678;50.94845400;5.30809100;2022-10-16T00:11:03;0.60;;;0.60;;
3331;SDS011;1678;50.94845400;5.30809100;2022-10-16T00:13:34;0.70;;;0.70;;
3331;SDS011;1678;50.94845400;5.30809100;2022-10-16T00:16:03;2.50;;;0.60;;
3331;SDS011;1678;50.94845400;5.30809100;2022-10-16T00:18:32;0.60;;;0.60;;
3331;SDS011;1678;50.94845400;5.30809100;2022-10-16T00:21:03;1.07;;;0.60;;
3331;SDS011;1678;50.94845400;5.30809100;2022-10-16T00:23:33;0.60;;;0.60;;
3331;SDS011;1678;50.94845400;5.30809100;2022-10-16T00:26:03;3.90;;;1.27;;
3331;SDS011;1678;50.94845400;5.30809100;2022-10-16T00:28:35;1.47;;;0.57;;
3331;SDS011;1678;50.94845400;5.30809100;2022-10-16T00:31:04;0.90;;;0.90;;
3331;SDS011;1678;50.94845400;5.30809100;2022-10-16T00:33:33;0.60;;;0.60;;
3331;SDS011;1678;50.94845400;5.30809100;2022-10-16T00:36:03;4.27;;;0.53;;
3331;SDS011;1678;50.94845400;5.30809100;2022-10-16T00:38:32;0.70;;;0.50;;
3331;SDS011;1678;50.94845400;5.30809100;2022-10-16T00:41:00;1.37;;;0.60;;
3331;SDS011;1678;50.94845400;5.30809100;2022-10-16T00:43:37;3.33;;;0.60;;
3331;SDS011;1678;50.94845400;5.30809100;2022-10-16T00:46:10;0.73;;;0.73;;
3331;SDS011;1678;50.94845400;5.30809100;2022-10-16T00:48:43;0.73;;;0.73;;
3331;SDS011;1678;50.94845400;5.30809100;2022-10-16T00:51:15;0.80;;;0.80;;
3331;SDS011;1678;50.94845400;5.30809100;2022-10-16T00:53:46;0.80;;;0.80;;
3331;SDS011;1678;50.94845400;5.30809100;2022-10-16T00:56:15;1.50;;;0.60;;
3331;SDS011;1678;50.94845400;5.30809100;2022-10-16T00:58:45;1.13;;;1.03;;
3331;SDS011;1678;50.94845400;5.30809100;2022-10-16T01:01:14;0.80;;;0.50;;
3331;SDS011;1678;50.94845400;5.30809100;2022-10-16T01:03:42;1.13;;;0.50;;
3331;SDS011;1678;50.94845400;5.30809100;2022-10-16T01:06:19;0.80;;;0.80;;
3331;SDS011;1678;50.94845400;5.30809100;2022-10-16T01:09:05;4.53;;;0.83;;
3331;SDS011;1678;50.94845400;5.30809100;2022-10-16T01:11:39;0.50;;;0.50;;
3331;SDS011;1678;50.94845400;5.30809100;2022-10-16T01:14:31;2.20;;;0.50;;
3331;SDS011;1678;50.94845400;5.30809100;2022-10-16T01:17:06;2.43;;;0.67;;
3331;SDS011;1678;50.94845400;5.30809100;2022-10-16T01:19:42;0.80;;;0.80;;
3331;SDS011;1678;50.94845400;5.30809100;2022-10-16T01:22:18;1.33;;;1.33;;
3331;SDS011;1678;50.94845400;5.30809100;2022-10-16T01:24:49;0.80;;;0.80;;
3331;SDS011;1678;50.94845400;5.30809100;2022-10-16T01:27:19;9.00;;;0.70;;
3331;SDS011;1678;50.94845400;5.30809100;2022-10-16T01:29:53;2.10;;;0.50;;
3331;SDS011;1678;50.94845400;5.30809100;2022-10-16T01:32:27;2.07;;;0.40;;
3331;SDS011;1678;50.94845400;5.30809100;2022-10-16T01:35:00;1.13;;;0.70;;
3331;SDS011;1678;50.94845400;5.30809100;2022-10-16T01:37:32;3.23;;;0.70;;
3331;SDS011;1678;50.94845400;5.30809100;2022-10-16T01:40:05;2.77;;;1.00;;
3331;SDS011;1678;50.94845400;5.30809100;2022-10-16T01:42:38;2.20;;;0.80;;
3331;SDS011;1678;50.94845400;5.30809100;2022-10-16T01:45:10;1.03;;;0.67;;
3331;SDS011;1678;50.94845400;5.30809100;2022-10-16T01:47:41;0.97;;;0.97;;
3331;SDS011;1678;50.94845400;5.30809100;2022-10-16T01:50:10;0.90;;;0.60;;
3331;SDS011;1678;50.94845400;5.30809100;2022-10-16T01:52:42;0.40;;;0.30;;
3331;SDS011;1678;50.94845400;5.30809100;2022-10-16T01:55:14;13.63;;;0.90;;
3331;SDS011;1678;50.94845400;5.30809100;2022-10-16T01:57:46;0.70;;;0.70;;
3331;SDS011;1678;50.94845400;5.30809100;2022-10-16T02:00:17;2.73;;;0.80;;
3331;SDS011;1678;50.94845400;5.30809100;2022-10-16T02:02:48;0.93;;;0.80;;
3331;SDS011;1678;50.94845400;5.30809100;2022-10-16T02:05:20;0.63;;;0.63;;
3331;SDS011;1678;50.94845400;5.30809100;2022-10-16T02:07:52;3.90;;;0.80;;
3331;SDS011;1678;50.94845400;5.30809100;2022-10-16T02:10:20;4.40;;;0.63;;
3331;SDS011;1678;50.94845400;5.30809100;2022-10-16T02:12:56;1.03;;;1.03;;
3331;SDS011;1678;50.94845400;5.30809100;2022-10-16T02:15:27;0.87;;;0.57;;
3331;SDS011;1678;50.94845400;5.30809100;2022-10-16T02:17:55;2.70;;;0.90;;
3331;SDS011;1678;50.94845400;5.30809100;2022-10-16T02:20:25;1.13;;;0.67;;
3331;SDS011;1678;50.94845400;5.30809100;2022-10-16T02:22:54;5.40;;;0.87;;
3331;SDS011;1678;50.94845400;5.30809100;2022-10-16T02:25:25;2.10;;;1.00;;
3331;SDS011;1678;50.94845400;5.30809100;2022-10-16T02:28:00;3.00;;;0.83;;
3331;SDS011;1678;50.94845400;5.30809100;2022-10-16T02:30:32;1.53;;;0.67;;
3331;SDS011;1678;50.94845400;5.30809100;2022-10-16T02:33:05;0.70;;;0.70;;
3331;SDS011;1678;50.94845400;5.30809100;2022-10-16T02:35:34;0.77;;;0.77;;
3331;SDS011;1678;50.94845400;5.30809100;2022-10-16T02:38:04;0.97;;;0.97;;
3331;SDS011;1678;50.94845400;5.30809100;2022-10-16T02:40:33;2.10;;;0.60;;
3331;SDS011;1678;50.94845400;5.30809100;2022-10-16T02:43:03;1.47;;;0.60;;
3331;SDS011;1678;50.94845400;5.30809100;2022-10-16T02:45:32;1.03;;;1.03;;
3331;SDS011;1678;50.94845400;5.30809100;2022-10-16T02:48:00;0.60;;;0.60;;
3331;SDS011;1678;50.94845400;5.30809100;2022-10-16T02:50:28;0.83;;;0.83;;
3331;SDS011;1678;50.94845400;5.30809100;2022-10-16T02:52:56;3.60;;;0.60;;
3331;SDS011;1678;50.94845400;5.30809100;2022-10-16T02:55:24;0.70;;;0.70;;
3331;SDS011;1678;50.94845400;5.30809100;2022-10-16T02:57:54;0.77;;;0.77;;
3331;SDS011;1678;50.94845400;5.30809100;2022-10-16T03:00:23;3.53;;;0.67;;
3331;SDS011;1678;50.94845400;5.30809100;2022-10-16T03:02:51;1.53;;;0.60;;
3331;SDS011;1678;50.94845400;5.30809100;2022-10-16T03:05:19;6.17;;;1.10;;
3331;SDS011;1678;50.94845400;5.30809100;2022-10-16T03:07:52;4.10;;;0.40;;
3331;SDS011;1678;50.94845400;5.30809100;2022-10-16T03:10:20;6.53;;;0.63;;
3331;SDS011;1678;50.94845400;5.30809100;2022-10-16T03:12:48;8.53;;;0.77;;
3331;SDS011;1678;50.94845400;5.30809100;2022-10-16T03:15:17;1.27;;;0.80;;
3331;SDS011;1678;50.94845400;5.30809100;2022-10-16T03:17:46;0.60;;;0.60;;
3331;SDS011;1678;50.94845400;5.30809100;2022-10-16T03:20:14;3.53;;;1.20;;
3331;SDS011;1678;50.94845400;5.30809100;2022-10-16T03:22:42;0.60;;;0.50;;
3331;SDS011;1678;50.94845400;5.30809100;2022-10-16T03:25:10;14.07;;;0.70;;
3331;SDS011;1678;50.94845400;5.30809100;2022-10-16T03:27:38;1.03;;;1.03;;
3331;SDS011;1678;50.94845400;5.30809100;2022-10-16T03:30:07;2.33;;;0.60;;
3331;SDS011;1678;50.94845400;5.30809100;2022-10-16T03:32:36;3.77;;;1.10;;
3331;SDS011;1678;50.94845400;5.30809100;2022-10-16T03:35:06;1.37;;;1.23;;
3331;SDS011;1678;50.94845400;5.30809100;2022-10-16T03:37:34;1.30;;;0.80;;
3331;SDS011;1678;50.94845400;5.30809100;2022-10-16T03:40:02;1.50;;;1.40;;
3331;SDS011;1678;50.94845400;5.30809100;2022-10-16T03:42:31;1.87;;;0.60;;
3331;SDS011;1678;50.94845400;5.30809100;2022-10-16T03:44:59;1.23;;;1.00;;
3331;SDS011;1678;50.94845400;5.30809100;2022-10-16T03:47:27;0.83;;;0.60;;
3331;SDS011;1678;50.94845400;5.30809100;2022-10-16T03:49:55;2.20;;;0.90;;
3331;SDS011;1678;50.94845400;5.30809100;2022-10-16T03:52:25;0.97;;;0.70;;
3331;SDS011;1678;50.94845400;5.30809100;2022-10-16T03:54:53;1.10;;;1.10;;
3331;SDS011;1678;50.94845400;5.30809100;2022-10-16T03:57:21;2.73;;;1.10;;
3331;SDS011;1678;50.94845400;5.30809100;2022-10-16T03:59:50;0.60;;;0.60;;
3331;SDS011;1678;50.94845400;5.30809100;2022-10-16T04:02:18;1.03;;;1.03;;
3331;SDS011;1678;50.94845400;5.30809100;2022-10-16T04:04:46;1.30;;;1.17;;
3331;SDS011;1678;50.94845400;5.30809100;2022-10-16T04:07:14;2.90;;;1.57;;
3331;SDS011;1678;50.94845400;5.30809100;2022-10-16T04:09:43;2.20;;;1.43;;
3331;SDS011;1678;50.94845400;5.30809100;2022-10-16T04:12:11;2.50;;;1.23;;
3331;SDS011;1678;50.94845400;5.30809100;2022-10-16T04:14:39;0.80;;;0.80;;
3331;SDS011;1678;50.94845400;5.30809100;2022-10-16T04:17:07;2.03;;;1.03;;
3331;SDS011;1678;50.94845400;5.30809100;2022-10-16T04:19:35;1.30;;;1.17;;
3331;SDS011;1678;50.94845400;5.30809100;2022-10-16T04:22:03;1.80;;;1.23;;
3331;SDS011;1678;50.94845400;5.30809100;2022-10-16T04:24:32;0.90;;;0.90;;
3331;SDS011;1678;50.94845400;5.30809100;2022-10-16T04:27:01;1.07;;;1.07;;
3331;SDS011;1678;50.94845400;5.30809100;2022-10-16T04:29:29;1.20;;;1.10;;
3331;SDS011;1678;50.94845400;5.30809100;2022-10-16T04:31:57;1.20;;;1.20;;
3331;SDS011;1678;50.94845400;5.30809100;2022-10-16T04:34:25;1.10;;;1.10;;
3331;SDS011;1678;50.94845400;5.30809100;2022-10-16T04:36:53;3.80;;;1.00;;
3331;SDS011;1678;50.94845400;5.30809100;2022-10-16T04:39:21;7.67;;;1.30;;
3331;SDS011;1678;50.94845400;5.30809100;2022-10-16T04:41:49;2.93;;;1.30;;
3331;SDS011;1678;50.94845400;5.30809100;2022-10-16T04:44:18;1.63;;;1.20;;
3331;SDS011;1678;50.94845400;5.30809100;2022-10-16T04:46:47;1.17;;;1.07;;
3331;SDS011;1678;50.94845400;5.30809100;2022-10-16T04:49:17;2.20;;;1.47;;
3331;SDS011;1678;50.94845400;5.30809100;2022-10-16T04:51:45;1.30;;;1.20;;
3331;SDS011;1678;50.94845400;5.30809100;2022-10-16T04:54:13;3.73;;;1.57;;
3331;SDS011;1678;50.94845400;5.30809100;2022-10-16T04:56:41;1.40;;;1.20;;
3331;SDS011;1678;50.94845400;5.30809100;2022-10-16T04:59:13;6.60;;;1.83;;
3331;SDS011;1678;50.94845400;5.30809100;2022-10-16T05:01:43;1.70;;;1.37;;
3331;SDS011;1678;50.94845400;5.30809100;2022-10-16T05:04:11;2.00;;;1.03;;
3331;SDS011;1678;50.94845400;5.30809100;2022-10-16T05:06:41;1.10;;;1.10;;
3331;SDS011;1678;50.94845400;5.30809100;2022-10-16T05:09:09;1.60;;;1.50;;
3331;SDS011;1678;50.94845400;5.30809100;2022-10-16T05:11:38;2.00;;;1.90;;
3331;SDS011;1678;50.94845400;5.30809100;2022-10-16T05:14:06;5.33;;;1.90;;
3331;SDS011;1678;50.94845400;5.30809100;2022-10-16T05:16:34;2.00;;;1.50;;
3331;SDS011;1678;50.94845400;5.30809100;2022-10-16T05:19:03;1.50;;;1.40;;
3331;SDS011;1678;50.94845400;5.30809100;2022-10-16T05:21:51;1.73;;;1.50;;
3331;SDS011;1678;50.94845400;5.30809100;2022-10-16T05:24:19;11.80;;;1.47;;
3331;SDS011;1678;50.94845400;5.30809100;2022-10-16T05:26:47;5.37;;;1.40;;
3331;SDS011;1678;50.94845400;5.30809100;2022-10-16T05:29:15;2.90;;;1.50;;
3331;SDS011;1678;50.94845400;5.30809100;2022-10-16T05:31:43;2.73;;;2.53;;
3331;SDS011;1678;50.94845400;5.30809100;2022-10-16T05:34:12;2.43;;;2.23;;
3331;SDS011;1678;50.94845400;5.30809100;2022-10-16T05:36:40;2.43;;;2.30;;
3331;SDS011;1678;50.94845400;5.30809100;2022-10-16T05:39:11;2.70;;;1.67;;
3331;SDS011;1678;50.94845400;5.30809100;2022-10-16T05:41:39;1.77;;;1.67;;
3331;SDS011;1678;50.94845400;5.30809100;2022-10-16T05:44:07;3.50;;;3.37;;
3331;SDS011;1678;50.94845400;5.30809100;2022-10-16T05:46:35;2.87;;;2.50;;
3331;SDS011;1678;50.94845400;5.30809100;2022-10-16T05:49:03;3.00;;;2.80;;
3331;SDS011;1678;50.94845400;5.30809100;2022-10-16T05:51:32;3.47;;;2.57;;
3331;SDS011;1678;50.94845400;5.30809100;2022-10-16T05:54:00;7.20;;;2.47;;
3331;SDS011;1678;50.94845400;5.30809100;2022-10-16T05:56:28;2.00;;;1.90;;
3331;SDS011;1678;50.94845400;5.30809100;2022-10-16T05:58:56;4.50;;;2.03;;
3331;SDS011;1678;50.94845400;5.30809100;2022-10-16T06:01:24;2.33;;;2.23;;
3331;SDS011;1678;50.94845400;5.30809100;2022-10-16T06:03:52;3.73;;;2.40;;
3331;SDS011;1678;50.94845400;5.30809100;2022-10-16T06:06:21;2.03;;;2.03;;
3331;SDS011;1678;50.94845400;5.30809100;2022-10-16T06:08:52;2.10;;;1.90;;
3331;SDS011;1678;50.94845400;5.30809100;2022-10-16T06:11:21;2.07;;;2.07;;
3331;SDS011;1678;50.94845400;5.30809100;2022-10-16T06:13:52;2.43;;;1.73;;
3331;SDS011;1678;50.94845400;5.30809100;2022-10-16T06:16:20;2.50;;;2.40;;
3331;SDS011;1678;50.94845400;5.30809100;2022-10-16T06:18:50;4.93;;;2.30;;
3331;SDS011;1678;50.94845400;5.30809100;2022-10-16T06:21:19;2.50;;;2.30;;
3331;SDS011;1678;50.94845400;5.30809100;2022-10-16T06:23:48;4.03;;;2.10;;
3331;SDS011;1678;50.94845400;5.30809100;2022-10-16T06:26:18;4.40;;;2.20;;
3331;SDS011;1678;50.94845400;5.30809100;2022-10-16T06:28:48;2.17;;;2.07;;
3331;SDS011;1678;50.94845400;5.30809100;2022-10-16T06:31:16;2.70;;;2.60;;
3331;SDS011;1678;50.94845400;5.30809100;2022-10-16T06:33:45;2.63;;;2.50;;
3331;SDS011;1678;50.94845400;5.30809100;2022-10-16T06:36:13;5.80;;;2.20;;
3331;SDS011;1678;50.94845400;5.30809100;2022-10-16T06:38:43;2.20;;;2.00;;
3331;SDS011;1678;50.94845400;5.30809100;2022-10-16T06:41:13;5.07;;;2.07;;
3331;SDS011;1678;50.94845400;5.30809100;2022-10-16T06:43:43;2.10;;;2.00;;
3331;SDS011;1678;50.94845400;5.30809100;2022-10-16T06:46:12;2.73;;;2.63;;
3331;SDS011;1678;50.94845400;5.30809100;2022-10-16T06:48:41;4.83;;;2.80;;
3331;SDS011;1678;50.94845400;5.30809100;2022-10-16T06:51:10;2.83;;;2.63;;
3331;SDS011;1678;50.94845400;5.30809100;2022-10-16T06:53:39;2.80;;;2.67;;
3331;SDS011;1678;50.94845400;5.30809100;2022-10-16T06:56:28;7.93;;;3.23;;
3331;SDS011;1678;50.94845400;5.30809100;2022-10-16T06:58:59;2.93;;;2.77;;
3331;SDS011;1678;50.94845400;5.30809100;2022-10-16T07:01:27;2.50;;;2.30;;
3331;SDS011;1678;50.94845400;5.30809100;2022-10-16T07:03:56;2.57;;;2.47;;
3331;SDS011;1678;50.94845400;5.30809100;2022-10-16T07:06:25;2.40;;;2.20;;
3331;SDS011;1678;50.94845400;5.30809100;2022-10-16T07:08:54;3.73;;;1.87;;
3331;SDS011;1678;50.94845400;5.30809100;2022-10-16T07:11:22;3.23;;;3.03;;
3331;SDS011;1678;50.94845400;5.30809100;2022-10-16T07:13:51;1.53;;;1.50;;
3331;SDS011;1678;50.94845400;5.30809100;2022-10-16T07:16:23;3.80;;;2.83;;
3331;SDS011;1678;50.94845400;5.30809100;2022-10-16T07:18:53;2.80;;;2.70;;
3331;SDS011;1678;50.94845400;5.30809100;2022-10-16T07:21:25;3.33;;;2.80;;
3331;SDS011;1678;50.94845400;5.30809100;2022-10-16T07:23:55;9.03;;;2.30;;
3331;SDS011;1678;50.94845400;5.30809100;2022-10-16T07:26:25;1.60;;;1.50;;
3331;SDS011;1678;50.94845400;5.30809100;2022-10-16T07:28:54;2.43;;;2.23;;
3331;SDS011;1678;50.94845400;5.30809100;2022-10-16T07:31:24;2.53;;;2.33;;
3331;SDS011;1678;50.94845400;5.30809100;2022-10-16T07:33:53;4.63;;;3.03;;
3331;SDS011;1678;50.94845400;5.30809100;2022-10-16T07:36:21;1.77;;;1.50;;
3331;SDS011;1678;50.94845400;5.30809100;2022-10-16T07:38:49;1.93;;;1.73;;
3331;SDS011;1678;50.94845400;5.30809100;2022-10-16T07:41:22;5.50;;;1.73;;
3331;SDS011;1678;50.94845400;5.30809100;2022-10-16T07:43:51;1.37;;;1.37;;
3331;SDS011;1678;50.94845400;5.30809100;2022-10-16T07:46:20;4.97;;;1.87;;
3331;SDS011;1678;50.94845400;5.30809100;2022-10-16T07:48:51;2.10;;;1.17;;
3331;SDS011;1678;50.94845400;5.30809100;2022-10-16T07:51:20;1.83;;;1.37;;
3331;SDS011;1678;50.94845400;5.30809100;2022-10-16T07:53:49;6.23;;;1.57;;
3331;SDS011;1678;50.94845400;5.30809100;2022-10-16T07:56:18;1.93;;;1.00;;
3331;SDS011;1678;50.94845400;5.30809100;2022-10-16T07:58:47;2.43;;;1.10;;
3331;SDS011;1678;50.94845400;5.30809100;2022-10-16T08:01:16;2.07;;;1.87;;
3331;SDS011;1678;50.94845400;5.30809100;2022-10-16T08:03:46;2.67;;;1.57;;
3331;SDS011;1678;50.94845400;5.30809100;2022-10-16T08:06:17;7.03;;;1.30;;
3331;SDS011;1678;50.94845400;5.30809100;2022-10-16T08:08:53;4.30;;;1.23;;
3331;SDS011;1678;50.94845400;5.30809100;2022-10-16T08:11:21;1.67;;;1.67;;
3331;SDS011;1678;50.94845400;5.30809100;2022-10-16T08:13:49;4.63;;;1.20;;
3331;SDS011;1678;50.94845400;5.30809100;2022-10-16T08:16:17;3.07;;;1.37;;
3331;SDS011;1678;50.94845400;5.30809100;2022-10-16T08:18:45;6.00;;;1.70;;
3331;SDS011;1678;50.94845400;5.30809100;2022-10-16T08:21:15;3.90;;;1.50;;
3331;SDS011;1678;50.94845400;5.30809100;2022-10-16T08:23:46;1.53;;;0.70;;
3331;SDS011;1678;50.94845400;5.30809100;2022-10-16T08:26:22;6.30;;;1.73;;
3331;SDS011;1678;50.94845400;5.30809100;2022-10-16T08:28:50;4.03;;;1.40;;
3331;SDS011;1678;50.94845400;5.30809100;2022-10-16T08:31:18;1.07;;;1.03;;
3331;SDS011;1678;50.94845400;5.30809100;2022-10-16T08:33:47;2.00;;;1.53;;
3331;SDS011;1678;50.94845400;5.30809100;2022-10-16T08:36:17;20.93;;;5.17;;
3331;SDS011;1678;50.94845400;5.30809100;2022-10-16T08:38:47;1.00;;;1.00;;
3331;SDS011;1678;50.94845400;5.30809100;2022-10-16T08:41:19;1.83;;;1.73;;
3331;SDS011;1678;50.94845400;5.30809100;2022-10-16T08:44:03;2.67;;;1.60;;
3331;SDS011;1678;50.94845400;5.30809100;2022-10-16T08:46:47;2.70;;;1.07;;
3331;SDS011;1678;50.94845400;5.30809100;2022-10-16T08:49:23;0.90;;;0.90;;
3331;SDS011;1678;50.94845400;5.30809100;2022-10-16T08:51:53;1.40;;;1.23;;
3331;SDS011;1678;50.94845400;5.30809100;2022-10-16T08:54:26;0.77;;;0.77;;
3331;SDS011;1678;50.94845400;5.30809100;2022-10-16T08:57:00;5.53;;;0.97;;
3331;SDS011;1678;50.94845400;5.30809100;2022-10-16T08:59:36;4.63;;;1.10;;
3331;SDS011;1678;50.94845400;5.30809100;2022-10-16T09:02:08;1.13;;;0.93;;
3331;SDS011;1678;50.94845400;5.30809100;2022-10-16T09:04:56;2.60;;;2.20;;
3331;SDS011;1678;50.94845400;5.30809100;2022-10-16T09:07:40;3.30;;;0.80;;
3331;SDS011;1678;50.94845400;5.30809100;2022-10-16T09:10:18;1.10;;;0.83;;
3331;SDS011;1678;50.94845400;5.30809100;2022-10-16T09:12:58;2.27;;;0.70;;
3331;SDS011;1678;50.94845400;5.30809100;2022-10-16T09:15:39;1.20;;;1.20;;
3331;SDS011;1678;50.94845400;5.30809100;2022-10-16T09:18:15;2.40;;;1.13;;
3331;SDS011;1678;50.94845400;5.30809100;2022-10-16T09:20:58;0.93;;;0.93;;
3331;SDS011;1678;50.94845400;5.30809100;2022-10-16T09:23:34;1.93;;;1.57;;
3331;SDS011;1678;50.94845400;5.30809100;2022-10-16T09:26:04;5.00;;;1.80;;
3331;SDS011;1678;50.94845400;5.30809100;2022-10-16T09:28:37;4.53;;;1.07;;
3331;SDS011;1678;50.94845400;5.30809100;2022-10-16T09:31:05;2.83;;;0.90;;
3331;SDS011;1678;50.94845400;5.30809100;2022-10-16T09:33:36;1.77;;;0.60;;
3331;SDS011;1678;50.94845400;5.30809100;2022-10-16T09:36:06;1.83;;;0.63;;
3331;SDS011;1678;50.94845400;5.30809100;2022-10-16T09:38:37;2.20;;;1.00;;
3331;SDS011;1678;50.94845400;5.30809100;2022-10-16T09:41:11;2.70;;;0.63;;
3331;SDS011;1678;50.94845400;5.30809100;2022-10-16T09:43:46;7.50;;;1.23;;
3331;SDS011;1678;50.94845400;5.30809100;2022-10-16T09:46:21;2.97;;;1.23;;
3331;SDS011;1678;50.94845400;5.30809100;2022-10-16T09:48:53;10.10;;;1.23;;
3331;SDS011;1678;50.94845400;5.30809100;2022-10-16T09:51:24;0.60;;;0.60;;
3331;SDS011;1678;50.94845400;5.30809100;2022-10-16T09:53:56;2.77;;;1.20;;
3331;SDS011;1678;50.94845400;5.30809100;2022-10-16T09:56:27;5.00;;;1.67;;
3331;SDS011;1678;50.94845400;5.30809100;2022-10-16T09:58:56;5.00;;;1.17;;
3331;SDS011;1678;50.94845400;5.30809100;2022-10-16T10:01:27;3.90;;;1.10;;
3331;SDS011;1678;50.94845400;5.30809100;2022-10-16T10:03:58;2.00;;;0.87;;
3331;SDS011;1678;50.94845400;5.30809100;2022-10-16T10:06:30;7.83;;;1.20;;
3331;SDS011;1678;50.94845400;5.30809100;2022-10-16T10:09:03;1.80;;;1.10;;
3331;SDS011;1678;50.94845400;5.30809100;2022-10-16T10:11:44;7.00;;;1.17;;
3331;SDS011;1678;50.94845400;5.30809100;2022-10-16T10:14:18;3.03;;;1.10;;
3331;SDS011;1678;50.94845400;5.30809100;2022-10-16T10:16:52;2.73;;;0.80;;
3331;SDS011;1678;50.94845400;5.30809100;2022-10-16T10:19:28;3.73;;;1.60;;
3331;SDS011;1678;50.94845400;5.30809100;2022-10-16T10:21:58;2.10;;;0.70;;
3331;SDS011;1678;50.94845400;5.30809100;2022-10-16T10:24:27;5.57;;;1.47;;
3331;SDS011;1678;50.94845400;5.30809100;2022-10-16T10:26:57;1.27;;;0.70;;
3331;SDS011;1678;50.94845400;5.30809100;2022-10-16T10:29:35;2.70;;;2.60;;
3331;SDS011;1678;50.94845400;5.30809100;2022-10-16T10:32:17;4.17;;;1.40;;
3331;SDS011;1678;50.94845400;5.30809100;2022-10-16T10:34:54;1.90;;;0.73;;
3331;SDS011;1678;50.94845400;5.30809100;2022-10-16T10:37:35;3.30;;;0.97;;
3331;SDS011;1678;50.94845400;5.30809100;2022-10-16T10:40:15;4.00;;;1.07;;
3331;SDS011;1678;50.94845400;5.30809100;2022-10-16T10:42:50;1.13;;;1.00;;
3331;SDS011;1678;50.94845400;5.30809100;2022-10-16T10:45:26;11.23;;;3.97;;
3331;SDS011;1678;50.94845400;5.30809100;2022-10-16T10:48:06;2.20;;;0.73;;
3331;SDS011;1678;50.94845400;5.30809100;2022-10-16T10:50:48;6.47;;;1.30;;
3331;SDS011;1678;50.94845400;5.30809100;2022-10-16T10:53:24;2.10;;;0.50;;
3331;SDS011;1678;50.94845400;5.30809100;2022-10-16T10:56:02;1.43;;;0.83;;
3331;SDS011;1678;50.94845400;5.30809100;2022-10-16T10:58:42;1.93;;;0.90;;
3331;SDS011;1678;50.94845400;5.30809100;2022-10-16T11:01:29;2.57;;;1.07;;
3331;SDS011;1678;50.94845400;5.30809100;2022-10-16T11:04:11;1.20;;;1.10;;
3331;SDS011;1678;50.94845400;5.30809100;2022-10-16T11:06:55;3.10;;;1.00;;
3331;SDS011;1678;50.94845400;5.30809100;2022-10-16T11:09:27;4.03;;;0.77;;
3331;SDS011;1678;50.94845400;5.30809100;2022-10-16T11:12:01;4.80;;;1.30;;
3331;SDS011;1678;50.94845400;5.30809100;2022-10-16T11:14:34;4.57;;;0.80;;
3331;SDS011;1678;50.94845400;5.30809100;2022-10-16T11:17:10;1.87;;;0.80;;
3331;SDS011;1678;50.94845400;5.30809100;2022-10-16T11:19:41;3.40;;;0.60;;
3331;SDS011;1678;50.94845400;5.30809100;2022-10-16T11:22:15;0.53;;;0.53;;
3331;SDS011;1678;50.94845400;5.30809100;2022-10-16T11:24:47;2.97;;;0.40;;
3331;SDS011;1678;50.94845400;5.30809100;2022-10-16T11:27:35;1.60;;;1.10;;
3331;SDS011;1678;50.94845400;5.30809100;2022-10-16T11:30:08;1.17;;;0.40;;
3331;SDS011;1678;50.94845400;5.30809100;2022-10-16T11:32:47;0.60;;;0.47;;
3331;SDS011;1678;50.94845400;5.30809100;2022-10-16T11:35:22;1.90;;;1.07;;
3331;SDS011;1678;50.94845400;5.30809100;2022-10-16T11:37:55;0.77;;;0.57;;
3331;SDS011;1678;50.94845400;5.30809100;2022-10-16T11:40:28;4.50;;;1.47;;
3331;SDS011;1678;50.94845400;5.30809100;2022-10-16T11:43:02;1.43;;;0.70;;
3331;SDS011;1678;50.94845400;5.30809100;2022-10-16T11:45:39;3.87;;;0.63;;
3331;SDS011;1678;50.94845400;5.30809100;2022-10-16T11:48:14;1.80;;;0.83;;
3331;SDS011;1678;50.94845400;5.30809100;2022-10-16T11:50:48;1.93;;;0.70;;
3331;SDS011;1678;50.94845400;5.30809100;2022-10-16T11:53:22;0.57;;;0.50;;
3331;SDS011;1678;50.94845400;5.30809100;2022-10-16T11:55:58;1.47;;;0.63;;
3331;SDS011;1678;50.94845400;5.30809100;2022-10-16T11:58:28;2.47;;;0.70;;
3331;SDS011;1678;50.94845400;5.30809100;2022-10-16T12:01:02;0.97;;;0.47;;
3331;SDS011;1678;50.94845400;5.30809100;2022-10-16T12:03:44;0.80;;;0.80;;
3331;SDS011;1678;50.94845400;5.30809100;2022-10-16T12:06:23;1.17;;;1.17;;
3331;SDS011;1678;50.94845400;5.30809100;2022-10-16T12:08:57;4.63;;;1.13;;
3331;SDS011;1678;50.94845400;5.30809100;2022-10-16T12:11:35;1.27;;;0.80;;
3331;SDS011;1678;50.94845400;5.30809100;2022-10-16T12:17:24;0.40;;;0.40;;
3331;SDS011;1678;50.94845400;5.30809100;2022-10-16T12:19:57;4.40;;;0.50;;
3331;SDS011;1678;50.94845400;5.30809100;2022-10-16T12:22:27;1.23;;;0.60;;
3331;SDS011;1678;50.94845400;5.30809100;2022-10-16T12:24:57;4.53;;;0.70;;
3331;SDS011;1678;50.94845400;5.30809100;2022-10-16T12:27:28;4.30;;;0.40;;
3331;SDS011;1678;50.94845400;5.30809100;2022-10-16T12:29:59;0.97;;;0.50;;
3331;SDS011;1678;50.94845400;5.30809100;2022-10-16T12:32:32;1.03;;;0.50;;
3331;SDS011;1678;50.94845400;5.30809100;2022-10-16T12:35:18;0.63;;;0.63;;
3331;SDS011;1678;50.94845400;5.30809100;2022-10-16T12:37:48;0.67;;;0.50;;
3331;SDS011;1678;50.94845400;5.30809100;2022-10-16T12:40:23;2.60;;;0.60;;
3331;SDS011;1678;50.94845400;5.30809100;2022-10-16T12:42:54;0.40;;;0.40;;
3331;SDS011;1678;50.94845400;5.30809100;2022-10-16T12:45:28;1.83;;;0.90;;
3331;SDS011;1678;50.94845400;5.30809100;2022-10-16T12:47:58;8.43;;;0.77;;
3331;SDS011;1678;50.94845400;5.30809100;2022-10-16T12:50:29;0.60;;;0.60;;
3331;SDS011;1678;50.94845400;5.30809100;2022-10-16T12:53:00;2.47;;;0.40;;
3331;SDS011;1678;50.94845400;5.30809100;2022-10-16T12:55:31;0.40;;;0.40;;
3331;SDS011;1678;50.94845400;5.30809100;2022-10-16T12:58:14;0.50;;;0.40;;
3331;SDS011;1678;50.94845400;5.30809100;2022-10-16T13:00:56;4.87;;;0.60;;
3331;SDS011;1678;50.94845400;5.30809100;2022-10-16T13:03:35;0.50;;;0.50;;
3331;SDS011;1678;50.94845400;5.30809100;2022-10-16T13:06:22;2.83;;;0.60;;
3331;SDS011;1678;50.94845400;5.30809100;2022-10-16T13:09:02;0.40;;;0.30;;
3331;SDS011;1678;50.94845400;5.30809100;2022-10-16T13:11:45;0.50;;;0.50;;
3331;SDS011;1678;50.94845400;5.30809100;2022-10-16T13:14:28;1.50;;;0.40;;
3331;SDS011;1678;50.94845400;5.30809100;2022-10-16T13:17:25;0.53;;;0.50;;
3331;SDS011;1678;50.94845400;5.30809100;2022-10-16T13:20:01;1.40;;;0.63;;
3331;SDS011;1678;50.94845400;5.30809100;2022-10-16T13:22:39;0.90;;;0.63;;
3331;SDS011;1678;50.94845400;5.30809100;2022-10-16T13:25:23;0.67;;;0.67;;
3331;SDS011;1678;50.94845400;5.30809100;2022-10-16T13:27:57;1.70;;;0.70;;
3331;SDS011;1678;50.94845400;5.30809100;2022-10-16T13:30:28;5.10;;;0.73;;
3331;SDS011;1678;50.94845400;5.30809100;2022-10-16T13:33:01;0.47;;;0.47;;
3331;SDS011;1678;50.94845400;5.30809100;2022-10-16T13:35:33;1.17;;;0.50;;
3331;SDS011;1678;50.94845400;5.30809100;2022-10-16T13:38:03;1.80;;;0.50;;
3331;SDS011;1678;50.94845400;5.30809100;2022-10-16T13:40:48;2.20;;;0.70;;